Saturday, November 17, 2018, 10:12 AM EST
Back to Local

KJST, Johnstown-cambria Co Airport

Location: Johnstown, PA, United States Lat: 40.317
Local Time: 10:12 AM EST (15:12 GMT) Lon: -78.833
Time Zone: US/Eastern Elev: 2283 ft

Show me the last for .
Show Decoded

2018-11-17 10:06 METAR KJST 171506Z AUTO 26009KT 7SM FEW010 OVC021 00/M02 A3020 RMK AO2 T00001017
                 $ =
2018-11-17 09:54 METAR KJST 171454Z AUTO 27010KT 7SM BKN010 OVC021 00/M02 A3019 RMK AO2 CIG
                 009V014 SLP250 T00001017 51015 $ =
2018-11-17 08:54 METAR KJST 171354Z AUTO 26010KT 7SM OVC012 M01/M02 A3019 RMK AO2 SLP247
                 T10061022 $ =
2018-11-17 08:18 METAR KJST 171318Z AUTO 28011KT 7SM BKN010 OVC018 M01/M02 A3019 RMK AO2 CIG
                 007V013 T10061022 $ =
2018-11-17 07:54 METAR KJST 171254Z AUTO 27011KT 7SM FEW010 SCT014 OVC019 M01/M02 A3017 RMK AO2
                 SLP242 T10061022 $ =
2018-11-17 07:39 METAR KJST 171239Z AUTO 27010KT 6SM BR BKN010 BKN016 OVC021 M01/M02 A3016 RMK
                 AO2 CIG 006V012 T10061022 $ =
2018-11-17 06:54 METAR KJST 171154Z AUTO 27010KT 7SM BKN008 BKN012 OVC021 M01/M02 A3015 RMK AO2
                 CIG 006V010 SLP234 I6001 T10061022 11006 21011 51020 $ =
2018-11-17 05:54 METAR KJST 171054Z AUTO 26011KT 7SM BKN008 BKN015 OVC021 M01/M02 A3013 RMK AO2
                 CIG 005V011 SLP229 T10061022 $ =
2018-11-17 04:54 METAR KJST 170954Z AUTO 27008KT 6SM BR OVC007 M01/M02 A3011 RMK AO2 CIG 004V010
                 SLP221 T10061022 =
2018-11-17 04:03 METAR KJST 170903Z AUTO 25008KT 5SM BR OVC005 M01/M02 A3009 RMK AO2 T10061022 =
2018-11-17 03:54 METAR KJST 170854Z AUTO 26007KT 6SM BR OVC004 M01/M02 A3008 RMK AO2 SLP213 I3001
                 T10061022 53020 =
2018-11-17 02:54 METAR KJST 170754Z AUTO 25008KT 5SM BR OVC004 M01/M02 A3006 RMK AO2 SLP206
                 T10061022 =
2018-11-17 01:54 METAR KJST 170654Z AUTO 26010KT 230V290 3SM BR OVC003 M01/M02 A3004 RMK AO2
                 SLP199 I1001 T10111022 =
2018-11-17 00:54 METAR KJST 170554Z AUTO 25009KT 3SM BR OVC004 M01/M02 A3002 RMK AO2 SLP192 60000
                 I1001 I6013 T10111022 11011 21011 53015 =
2018-11-16 23:54 METAR KJST 170454Z AUTO 28007G18KT 4SM BR OVC003 M01/M02 A3001 RMK AO2
                 FZRAB07E37 SLP186 P0000 I1002 T10111022 410111028 =
2018-11-16 23:43 METAR KJST 170443Z AUTO 28011G19KT 4SM BR OVC004 M01/M02 A3000 RMK AO2
                 FZRAB07E37 P0000 I1002 T10111022 =
2018-11-16 23:13 METAR KJST 170413Z AUTO 28016G23KT 3SM -FZRA BR OVC004 M01/M03 A2999 RMK AO2
                 FZRAB07 P0000 I1001 T10111028 =
2018-11-16 22:54 METAR KJST 170354Z AUTO 28016G24KT 4SM BR OVC004 M01/M03 A2999 RMK AO2 PK WND
                 29033/0316 SLP180 I1002 T10111028 =
2018-11-16 22:27 METAR KJST 170327Z AUTO 28019G27KT 4SM BR OVC003 M01/M03 A2998 RMK AO2 PK WND
                 29033/0316 CIG 002V006 I1001 T10111028 =
2018-11-16 22:15 METAR KJST 170315Z AUTO 28018G32KT 3SM BR OVC002 M01/M03 A2998 RMK AO2 PK WND
                 28032/0312 CIG 002V006 I1000 T10111028 =
2018-11-16 21:54 METAR KJST 170254Z AUTO 28017G30KT 2 1/2SM BR OVC002 M01/M03 A2997 RMK AO2 PK
                 WND 28033/0202 SLP176 I1002 I3008 T10111028 53011 =
2018-11-16 21:26 METAR KJST 170226Z AUTO 28023G32KT 1 1/4SM BR OVC002 M01/M03 A2997 RMK AO2 PK
                 WND 28033/0202 I1001 T10111028 =
2018-11-16 21:09 METAR KJST 170209Z AUTO 27020G33KT 3/4SM BR VV002 M01/M03 A2996 RMK AO2 PK WND
                 28033/0202 I1000 T10111028 =
2018-11-16 20:54 METAR KJST 170154Z AUTO 28018G28KT 1/4SM FZFG VV002 M01/M02 A2995 RMK AO2 PK WND
                 27035/0059 SLP169 I1004 T10111022 =
2018-11-16 19:54 METAR KJST 170054Z AUTO 28019G28KT 1/2SM FZFG VV002 M01/M03 A2994 RMK AO2 PK WND
                 28033/0028 SLP164 I1002 T10111028 =
2018-11-16 19:49 METAR KJST 170049Z AUTO 27018G29KT 1/2SM FZFG VV002 M01/M03 A2994 RMK AO2 PK WND
                 28033/0028 I1002 =
2018-11-16 19:05 METAR KJST 170005Z AUTO 27020G31KT 1 1/4SM BR OVC002 M01/M03 A2992 RMK AO2 PK
                 WND 26031/2358 I1000 T10111028 =
2018-11-16 18:54 METAR KJST 162354Z AUTO 26018G26KT 3/4SM BR VV002 M01/M03 A2992 RMK AO2 PK WND
                 26033/2328 SLP156 60000 I1001 I6002 T10111028 11011 21022 53016 =
2018-11-16 18:18 METAR KJST 162318Z AUTO 26019G27KT 3/4SM BR VV002 M02/M03 A2991 RMK AO2 PK WND
                 26027/2313 T10171028 =
2018-11-16 17:54 METAR KJST 162254Z AUTO 26017G24KT 1SM BR OVC002 M02/M03 A2990 RMK AO2 PK WND
                 25028/2224 SLP150 I1001 T10171033 =
2018-11-16 16:54 METAR KJST 162154Z AUTO 25015G21KT 1 1/2SM BR OVC002 M02/M03 A2987 RMK AO2 PK
                 WND 26026/2118 UPE01 SLP140 P0000 I1000 T10221033 =
2018-11-16 16:49 METAR KJST 162149Z AUTO 25015KT 1 1/2SM BR OVC003 M02/M03 A2987 RMK AO2 PK WND
                 26026/2118 UPE01 P0000 I1000 =
2018-11-16 15:54 METAR KJST 162054Z AUTO 25015G24KT 2 1/2SM UP BR OVC003 M02/M04 A2986 RMK AO2
                 UPE1959B51 SLP139 P0000 60000 I1000 I3000 T10221039 51015 =
2018-11-16 15:46 METAR KJST 162046Z AUTO 25015G24KT 3SM BR OVC003 M02/M04 A2986 RMK AO2 UPE1959
                 P0000 T10221039 =
2018-11-16 15:29 METAR KJST 162029Z AUTO 25017KT 2 1/2SM BR OVC003 M02/M04 A2984 RMK AO2 UPE1959
                 P0000 T10221039 =
2018-11-16 14:54 METAR KJST 161954Z AUTO 25016G22KT 4SM UP BR OVC004 M02/M04 A2984 RMK AO2 UPB38
                 SLP132 P0000 T10221039 =
2018-11-16 14:01 METAR KJST 161901Z AUTO 25017KT 7SM OVC005 M02/M04 A2982 RMK AO2 CIG 003V009
                 T10221039 =
2018-11-16 13:54 METAR KJST 161854Z AUTO 26017G28KT 6SM BR OVC004 M02/M04 A2982 RMK AO2 PK WND
                 27033/1758 CIG 003V009 SLP123 T10221039 =
2018-11-16 13:08 METAR KJST 161808Z AUTO 26022G29KT 3SM BR OVC004 M02/M04 A2981 RMK AO2 PK WND
                 27033/1758 T10221039 =
2018-11-16 12:54 METAR KJST 161754Z AUTO 26021G30KT 1 3/4SM BR OVC002 M02/M04 A2980 RMK AO2 PK
                 WND 27030/1754 VIS 1V3 SLP118 60000 I1000 I6000 T10221039 11011 21028 58002 =
2018-11-16 12:28 METAR KJST 161728Z AUTO 25022G29KT 1 1/4SM BR OVC002 M02/M04 A2980 RMK AO2 PK
                 WND 26030/1708 I1000 T10221039 =
2018-11-16 12:15 METAR KJST 161715Z AUTO 25018G30KT 1 1/2SM BR OVC003 M02/M04 A2980 RMK AO2 PK
                 WND 26030/1708 I1000 T10221039 =
2018-11-16 11:54 METAR KJST 161654Z AUTO 26016G25KT 2 1/2SM BR OVC004 M02/M04 A2980 RMK AO2 PK
                 WND 25030/1644 SLP118 T10221039 =
2018-11-16 11:47 METAR KJST 161647Z AUTO 26018G30KT 2SM BR OVC004 M02/M04 A2980 RMK AO2 PK WND
                 25030/1644 T10221039 =
2018-11-16 11:20 METAR KJST 161620Z AUTO 25016G24KT 3SM BR OVC004 M02/M04 A2980 RMK AO2 T10221039
                 =
2018-11-16 11:15 METAR KJST 161615Z AUTO 26014G24KT 2SM BR OVC002 M02/M04 A2980 RMK AO2 T10221039
                 =
2018-11-16 11:01 METAR KJST 161601Z AUTO 24014KT 1/2SM FZFG OVC002 M03/M04 A2981 RMK AO2
                 T10281039 =
2018-11-16 10:54 METAR KJST 161554Z AUTO 25014G23KT 1SM BR OVC002 M03/M04 A2981 RMK AO2
                 SNE01B19E49 SLP122 P0000 T10281039 =
2018-11-16 10:46 METAR KJST 161546Z AUTO 24013G22KT 2SM -SN BR OVC004 M02/M04 A2981 RMK AO2
                 SNE01B19 CIG 002V008 P0000 T10221039 =
2018-11-16 10:21 METAR KJST 161521Z AUTO 25016KT 1 3/4SM -SN BR OVC009 M02/M03 A2982 RMK AO2
                 SNE01B19 CIG 005V011 P0000 T10171033 =

Support USWX by starting your Amazon purchase here.